Terminal Aerodrome Forecast
Issued by NWS Brownsville, TX

Current Version | Previous Version | Text Only | Print | Product List | Glossary Off
Versions: 1 2 3 4 5 6 7 8 9 10 11 12 13 14 15

235
FTUS44 KBRO 181740
TAFHRL
TAF
KHRL 181740Z 1818/1918 32012KT P6SM SCT030 BKN070
      TEMPO 1818/1821 6SM -RA BKN015
     FM182100 31008KT P6SM SCT025 BKN030
     FM191200 33006KT 5SM BR VCSH BKN035=

USA.gov is the U.S. government's official web portal to all federal, state and local government web resources and services.